sensor_id;sensor_type;location;lat;lon;timestamp;P1;durP1;ratioP1;P2;durP2;ratioP2
6017;SDS011;3037;51.068;13.780;2024-01-07T00:02:24;39.57;;;19.63;;
6017;SDS011;3037;51.068;13.780;2024-01-07T00:04:49;29.73;;;17.10;;
6017;SDS011;3037;51.068;13.780;2024-01-07T00:07:15;34.27;;;19.20;;
6017;SDS011;3037;51.068;13.780;2024-01-07T00:09:40;29.50;;;18.07;;
6017;SDS011;3037;51.068;13.780;2024-01-07T00:12:06;34.23;;;19.33;;
6017;SDS011;3037;51.068;13.780;2024-01-07T00:14:32;34.47;;;17.87;;
6017;SDS011;3037;51.068;13.780;2024-01-07T00:16:57;32.70;;;16.83;;
6017;SDS011;3037;51.068;13.780;2024-01-07T00:19:23;28.17;;;17.07;;
6017;SDS011;3037;51.068;13.780;2024-01-07T00:21:48;33.43;;;17.33;;
6017;SDS011;3037;51.068;13.780;2024-01-07T00:24:14;31.60;;;17.33;;
6017;SDS011;3037;51.068;13.780;2024-01-07T00:26:40;31.63;;;16.17;;
6017;SDS011;3037;51.068;13.780;2024-01-07T00:29:06;33.70;;;16.77;;
6017;SDS011;3037;51.068;13.780;2024-01-07T00:31:31;31.37;;;18.67;;
6017;SDS011;3037;51.068;13.780;2024-01-07T00:33:57;31.07;;;16.40;;
6017;SDS011;3037;51.068;13.780;2024-01-07T00:36:22;30.00;;;15.70;;
6017;SDS011;3037;51.068;13.780;2024-01-07T00:38:48;30.00;;;15.20;;
6017;SDS011;3037;51.068;13.780;2024-01-07T00:41:13;29.50;;;14.90;;
6017;SDS011;3037;51.068;13.780;2024-01-07T00:43:39;35.57;;;17.20;;
6017;SDS011;3037;51.068;13.780;2024-01-07T00:46:05;28.13;;;17.30;;
6017;SDS011;3037;51.068;13.780;2024-01-07T00:48:31;34.27;;;18.47;;
6017;SDS011;3037;51.068;13.780;2024-01-07T00:50:56;31.07;;;16.27;;
6017;SDS011;3037;51.068;13.780;2024-01-07T00:53:22;28.30;;;16.30;;
6017;SDS011;3037;51.068;13.780;2024-01-07T00:55:47;36.70;;;17.17;;
6017;SDS011;3037;51.068;13.780;2024-01-07T00:58:13;31.70;;;15.67;;
6017;SDS011;3037;51.068;13.780;2024-01-07T01:00:38;29.20;;;16.70;;
6017;SDS011;3037;51.068;13.780;2024-01-07T01:03:04;27.27;;;16.50;;
6017;SDS011;3037;51.068;13.780;2024-01-07T01:05:29;27.50;;;15.27;;
6017;SDS011;3037;51.068;13.780;2024-01-07T01:07:55;34.80;;;17.13;;
6017;SDS011;3037;51.068;13.780;2024-01-07T01:10:21;28.43;;;15.80;;
6017;SDS011;3037;51.068;13.780;2024-01-07T01:12:46;31.03;;;15.77;;
6017;SDS011;3037;51.068;13.780;2024-01-07T01:15:12;24.60;;;14.50;;
6017;SDS011;3037;51.068;13.780;2024-01-07T01:17:38;29.57;;;17.37;;
6017;SDS011;3037;51.068;13.780;2024-01-07T01:20:03;32.00;;;16.50;;
6017;SDS011;3037;51.068;13.780;2024-01-07T01:22:29;24.70;;;14.57;;
6017;SDS011;3037;51.068;13.780;2024-01-07T01:24:54;32.90;;;17.40;;
6017;SDS011;3037;51.068;13.780;2024-01-07T01:27:21;33.50;;;17.50;;
6017;SDS011;3037;51.068;13.780;2024-01-07T01:29:46;31.93;;;17.30;;
6017;SDS011;3037;51.068;13.780;2024-01-07T01:32:12;33.87;;;17.47;;
6017;SDS011;3037;51.068;13.780;2024-01-07T01:34:37;28.00;;;15.53;;
6017;SDS011;3037;51.068;13.780;2024-01-07T01:37:05;31.40;;;16.00;;
6017;SDS011;3037;51.068;13.780;2024-01-07T01:39:30;28.43;;;16.47;;
6017;SDS011;3037;51.068;13.780;2024-01-07T01:41:56;32.67;;;17.20;;
6017;SDS011;3037;51.068;13.780;2024-01-07T01:44:23;31.60;;;15.83;;
6017;SDS011;3037;51.068;13.780;2024-01-07T01:46:48;33.37;;;16.43;;
6017;SDS011;3037;51.068;13.780;2024-01-07T01:49:14;29.90;;;16.57;;
6017;SDS011;3037;51.068;13.780;2024-01-07T01:51:40;32.40;;;17.60;;
6017;SDS011;3037;51.068;13.780;2024-01-07T01:54:06;29.10;;;15.67;;
6017;SDS011;3037;51.068;13.780;2024-01-07T01:56:32;32.13;;;17.40;;
6017;SDS011;3037;51.068;13.780;2024-01-07T01:58:58;31.93;;;16.17;;
6017;SDS011;3037;51.068;13.780;2024-01-07T02:01:24;32.27;;;16.90;;
6017;SDS011;3037;51.068;13.780;2024-01-07T02:03:50;30.70;;;16.70;;
6017;SDS011;3037;51.068;13.780;2024-01-07T02:06:17;37.13;;;16.50;;
6017;SDS011;3037;51.068;13.780;2024-01-07T02:08:43;28.67;;;16.23;;
6017;SDS011;3037;51.068;13.780;2024-01-07T02:11:18;31.73;;;16.47;;
6017;SDS011;3037;51.068;13.780;2024-01-07T02:13:45;27.17;;;15.03;;
6017;SDS011;3037;51.068;13.780;2024-01-07T02:16:11;31.00;;;15.90;;
6017;SDS011;3037;51.068;13.780;2024-01-07T02:18:37;25.27;;;14.87;;
6017;SDS011;3037;51.068;13.780;2024-01-07T02:21:05;32.13;;;15.50;;
6017;SDS011;3037;51.068;13.780;2024-01-07T02:23:32;32.80;;;16.00;;
6017;SDS011;3037;51.068;13.780;2024-01-07T02:25:57;30.33;;;16.07;;
6017;SDS011;3037;51.068;13.780;2024-01-07T02:28:23;28.53;;;15.97;;
6017;SDS011;3037;51.068;13.780;2024-01-07T02:30:48;35.03;;;15.50;;
6017;SDS011;3037;51.068;13.780;2024-01-07T02:33:14;25.20;;;15.97;;
6017;SDS011;3037;51.068;13.780;2024-01-07T02:35:39;31.37;;;15.83;;
6017;SDS011;3037;51.068;13.780;2024-01-07T02:38:05;28.30;;;15.00;;
6017;SDS011;3037;51.068;13.780;2024-01-07T02:40:30;27.73;;;14.77;;
6017;SDS011;3037;51.068;13.780;2024-01-07T02:42:56;37.37;;;15.97;;
6017;SDS011;3037;51.068;13.780;2024-01-07T02:45:21;24.83;;;14.80;;
6017;SDS011;3037;51.068;13.780;2024-01-07T02:47:47;28.37;;;15.33;;
6017;SDS011;3037;51.068;13.780;2024-01-07T02:50:13;28.27;;;15.90;;
6017;SDS011;3037;51.068;13.780;2024-01-07T02:52:38;26.17;;;14.00;;
6017;SDS011;3037;51.068;13.780;2024-01-07T02:55:04;27.80;;;13.80;;
6017;SDS011;3037;51.068;13.780;2024-01-07T02:57:30;30.50;;;13.63;;
6017;SDS011;3037;51.068;13.780;2024-01-07T02:59:55;23.33;;;14.27;;
6017;SDS011;3037;51.068;13.780;2024-01-07T03:02:21;21.73;;;13.87;;
6017;SDS011;3037;51.068;13.780;2024-01-07T03:04:47;25.73;;;12.10;;
6017;SDS011;3037;51.068;13.780;2024-01-07T03:07:12;24.80;;;12.67;;
6017;SDS011;3037;51.068;13.780;2024-01-07T03:09:38;28.87;;;14.23;;
6017;SDS011;3037;51.068;13.780;2024-01-07T03:12:03;26.33;;;12.30;;
6017;SDS011;3037;51.068;13.780;2024-01-07T03:14:29;23.17;;;13.90;;
6017;SDS011;3037;51.068;13.780;2024-01-07T03:16:54;28.20;;;12.33;;
6017;SDS011;3037;51.068;13.780;2024-01-07T03:19:20;22.10;;;12.00;;
6017;SDS011;3037;51.068;13.780;2024-01-07T03:21:46;25.70;;;12.97;;
6017;SDS011;3037;51.068;13.780;2024-01-07T03:24:12;21.77;;;12.20;;
6017;SDS011;3037;51.068;13.780;2024-01-07T03:26:38;25.93;;;13.27;;
6017;SDS011;3037;51.068;13.780;2024-01-07T03:29:03;32.77;;;14.50;;
6017;SDS011;3037;51.068;13.780;2024-01-07T03:31:29;29.33;;;14.13;;
6017;SDS011;3037;51.068;13.780;2024-01-07T03:33:54;20.83;;;13.13;;
6017;SDS011;3037;51.068;13.780;2024-01-07T03:36:20;18.60;;;12.20;;
6017;SDS011;3037;51.068;13.780;2024-01-07T03:38:45;20.07;;;12.30;;
6017;SDS011;3037;51.068;13.780;2024-01-07T03:41:17;26.63;;;13.90;;
6017;SDS011;3037;51.068;13.780;2024-01-07T03:43:44;19.57;;;11.33;;
6017;SDS011;3037;51.068;13.780;2024-01-07T03:46:11;22.50;;;11.97;;
6017;SDS011;3037;51.068;13.780;2024-01-07T03:48:36;21.80;;;12.50;;
6017;SDS011;3037;51.068;13.780;2024-01-07T03:51:02;21.97;;;12.13;;
6017;SDS011;3037;51.068;13.780;2024-01-07T03:53:27;21.47;;;12.53;;
6017;SDS011;3037;51.068;13.780;2024-01-07T03:55:53;29.37;;;13.80;;
6017;SDS011;3037;51.068;13.780;2024-01-07T03:58:18;22.60;;;13.60;;
6017;SDS011;3037;51.068;13.780;2024-01-07T04:00:44;24.13;;;12.47;;
6017;SDS011;3037;51.068;13.780;2024-01-07T04:03:09;20.30;;;12.80;;
6017;SDS011;3037;51.068;13.780;2024-01-07T04:05:35;24.63;;;13.03;;
6017;SDS011;3037;51.068;13.780;2024-01-07T04:08:01;21.40;;;12.33;;
6017;SDS011;3037;51.068;13.780;2024-01-07T04:10:27;32.13;;;12.80;;
6017;SDS011;3037;51.068;13.780;2024-01-07T04:12:53;20.40;;;12.43;;
6017;SDS011;3037;51.068;13.780;2024-01-07T04:15:18;23.40;;;12.43;;
6017;SDS011;3037;51.068;13.780;2024-01-07T04:17:44;17.83;;;12.50;;
6017;SDS011;3037;51.068;13.780;2024-01-07T04:20:12;23.67;;;12.07;;
6017;SDS011;3037;51.068;13.780;2024-01-07T04:22:38;27.87;;;13.00;;
6017;SDS011;3037;51.068;13.780;2024-01-07T04:25:04;22.10;;;12.17;;
6017;SDS011;3037;51.068;13.780;2024-01-07T04:27:33;25.20;;;12.87;;
6017;SDS011;3037;51.068;13.780;2024-01-07T04:29:59;22.30;;;12.50;;
6017;SDS011;3037;51.068;13.780;2024-01-07T04:32:25;22.70;;;12.13;;
6017;SDS011;3037;51.068;13.780;2024-01-07T04:34:50;22.30;;;12.57;;
6017;SDS011;3037;51.068;13.780;2024-01-07T04:37:16;21.03;;;11.93;;
6017;SDS011;3037;51.068;13.780;2024-01-07T04:39:41;20.67;;;12.37;;
6017;SDS011;3037;51.068;13.780;2024-01-07T04:42:07;20.93;;;11.77;;
6017;SDS011;3037;51.068;13.780;2024-01-07T04:44:32;22.37;;;11.77;;
6017;SDS011;3037;51.068;13.780;2024-01-07T04:46:57;19.43;;;11.10;;
6017;SDS011;3037;51.068;13.780;2024-01-07T04:49:23;18.20;;;12.20;;
6017;SDS011;3037;51.068;13.780;2024-01-07T04:51:48;19.50;;;12.00;;
6017;SDS011;3037;51.068;13.780;2024-01-07T04:54:14;24.77;;;11.03;;
6017;SDS011;3037;51.068;13.780;2024-01-07T04:56:39;19.60;;;12.00;;
6017;SDS011;3037;51.068;13.780;2024-01-07T04:59:05;17.30;;;11.73;;
6017;SDS011;3037;51.068;13.780;2024-01-07T05:01:32;16.97;;;11.60;;
6017;SDS011;3037;51.068;13.780;2024-01-07T05:03:58;19.90;;;11.33;;
6017;SDS011;3037;51.068;13.780;2024-01-07T05:06:23;19.53;;;11.77;;
6017;SDS011;3037;51.068;13.780;2024-01-07T05:08:49;22.90;;;12.63;;
6017;SDS011;3037;51.068;13.780;2024-01-07T05:11:14;22.20;;;12.33;;
6017;SDS011;3037;51.068;13.780;2024-01-07T05:13:42;18.47;;;10.30;;
6017;SDS011;3037;51.068;13.780;2024-01-07T05:16:07;19.43;;;10.57;;
6017;SDS011;3037;51.068;13.780;2024-01-07T05:18:33;20.53;;;9.97;;
6017;SDS011;3037;51.068;13.780;2024-01-07T05:20:58;14.13;;;9.20;;
6017;SDS011;3037;51.068;13.780;2024-01-07T05:23:24;17.70;;;9.60;;
6017;SDS011;3037;51.068;13.780;2024-01-07T05:25:49;21.90;;;11.10;;
6017;SDS011;3037;51.068;13.780;2024-01-07T05:28:15;15.77;;;9.67;;
6017;SDS011;3037;51.068;13.780;2024-01-07T05:30:44;18.03;;;10.03;;
6017;SDS011;3037;51.068;13.780;2024-01-07T05:33:09;18.77;;;9.50;;
6017;SDS011;3037;51.068;13.780;2024-01-07T05:35:35;23.30;;;9.77;;
6017;SDS011;3037;51.068;13.780;2024-01-07T05:38:00;17.50;;;10.40;;
6017;SDS011;3037;51.068;13.780;2024-01-07T05:40:26;21.00;;;10.30;;
6017;SDS011;3037;51.068;13.780;2024-01-07T05:42:51;15.93;;;9.47;;
6017;SDS011;3037;51.068;13.780;2024-01-07T05:45:17;16.83;;;9.70;;
6017;SDS011;3037;51.068;13.780;2024-01-07T05:47:42;21.23;;;9.40;;
6017;SDS011;3037;51.068;13.780;2024-01-07T05:50:08;21.07;;;10.23;;
6017;SDS011;3037;51.068;13.780;2024-01-07T05:52:34;15.80;;;9.30;;
6017;SDS011;3037;51.068;13.780;2024-01-07T05:54:59;19.80;;;9.50;;
6017;SDS011;3037;51.068;13.780;2024-01-07T05:57:25;20.00;;;9.40;;
6017;SDS011;3037;51.068;13.780;2024-01-07T05:59:50;15.50;;;8.90;;
6017;SDS011;3037;51.068;13.780;2024-01-07T06:02:17;16.50;;;9.80;;
6017;SDS011;3037;51.068;13.780;2024-01-07T06:04:42;15.73;;;8.80;;
6017;SDS011;3037;51.068;13.780;2024-01-07T06:07:08;12.60;;;8.20;;
6017;SDS011;3037;51.068;13.780;2024-01-07T06:09:34;15.87;;;7.90;;
6017;SDS011;3037;51.068;13.780;2024-01-07T06:11:59;14.93;;;8.87;;
6017;SDS011;3037;51.068;13.780;2024-01-07T06:14:25;11.93;;;7.40;;
6017;SDS011;3037;51.068;13.780;2024-01-07T06:16:50;13.33;;;8.00;;
6017;SDS011;3037;51.068;13.780;2024-01-07T06:19:17;14.50;;;7.33;;
6017;SDS011;3037;51.068;13.780;2024-01-07T06:21:43;13.43;;;7.40;;
6017;SDS011;3037;51.068;13.780;2024-01-07T06:24:08;9.90;;;7.60;;
6017;SDS011;3037;51.068;13.780;2024-01-07T06:26:34;10.53;;;7.37;;
6017;SDS011;3037;51.068;13.780;2024-01-07T06:29:00;12.83;;;7.73;;
6017;SDS011;3037;51.068;13.780;2024-01-07T06:31:26;12.10;;;7.10;;
6017;SDS011;3037;51.068;13.780;2024-01-07T06:33:51;11.43;;;7.30;;
6017;SDS011;3037;51.068;13.780;2024-01-07T06:36:17;8.10;;;5.93;;
6017;SDS011;3037;51.068;13.780;2024-01-07T06:38:42;12.23;;;7.67;;
6017;SDS011;3037;51.068;13.780;2024-01-07T06:41:09;16.87;;;7.37;;
6017;SDS011;3037;51.068;13.780;2024-01-07T06:43:35;10.27;;;7.20;;
6017;SDS011;3037;51.068;13.780;2024-01-07T06:46:00;9.50;;;7.00;;
6017;SDS011;3037;51.068;13.780;2024-01-07T06:48:26;12.50;;;7.40;;
6017;SDS011;3037;51.068;13.780;2024-01-07T06:50:51;7.13;;;6.33;;
6017;SDS011;3037;51.068;13.780;2024-01-07T06:53:17;10.00;;;6.33;;
6017;SDS011;3037;51.068;13.780;2024-01-07T06:55:43;8.60;;;6.57;;
6017;SDS011;3037;51.068;13.780;2024-01-07T06:58:08;6.43;;;5.73;;
6017;SDS011;3037;51.068;13.780;2024-01-07T07:00:34;8.87;;;6.40;;
6017;SDS011;3037;51.068;13.780;2024-01-07T07:02:59;13.20;;;5.53;;
6017;SDS011;3037;51.068;13.780;2024-01-07T07:05:25;8.07;;;5.77;;
6017;SDS011;3037;51.068;13.780;2024-01-07T07:07:50;8.70;;;5.97;;
6017;SDS011;3037;51.068;13.780;2024-01-07T07:10:15;5.73;;;5.23;;
6017;SDS011;3037;51.068;13.780;2024-01-07T07:12:41;7.07;;;5.33;;
6017;SDS011;3037;51.068;13.780;2024-01-07T07:15:07;5.73;;;5.13;;
6017;SDS011;3037;51.068;13.780;2024-01-07T07:17:34;11.40;;;5.40;;
6017;SDS011;3037;51.068;13.780;2024-01-07T07:20:01;11.00;;;5.90;;
6017;SDS011;3037;51.068;13.780;2024-01-07T07:22:26;7.77;;;5.73;;
6017;SDS011;3037;51.068;13.780;2024-01-07T07:24:52;5.63;;;5.00;;
6017;SDS011;3037;51.068;13.780;2024-01-07T07:27:17;5.37;;;4.87;;
6017;SDS011;3037;51.068;13.780;2024-01-07T07:29:43;6.33;;;5.70;;
6017;SDS011;3037;51.068;13.780;2024-01-07T07:32:08;9.00;;;5.30;;
6017;SDS011;3037;51.068;13.780;2024-01-07T07:34:34;6.50;;;4.53;;
6017;SDS011;3037;51.068;13.780;2024-01-07T07:36:59;11.20;;;5.90;;
6017;SDS011;3037;51.068;13.780;2024-01-07T07:39:25;5.67;;;5.07;;
6017;SDS011;3037;51.068;13.780;2024-01-07T07:41:50;8.03;;;5.57;;
6017;SDS011;3037;51.068;13.780;2024-01-07T07:44:16;7.07;;;5.00;;
6017;SDS011;3037;51.068;13.780;2024-01-07T07:46:41;8.40;;;5.10;;
6017;SDS011;3037;51.068;13.780;2024-01-07T07:49:07;9.47;;;5.40;;
6017;SDS011;3037;51.068;13.780;2024-01-07T07:51:32;5.17;;;4.37;;
6017;SDS011;3037;51.068;13.780;2024-01-07T07:53:58;6.17;;;4.93;;
6017;SDS011;3037;51.068;13.780;2024-01-07T07:56:23;5.83;;;5.23;;
6017;SDS011;3037;51.068;13.780;2024-01-07T07:58:49;7.03;;;5.00;;
6017;SDS011;3037;51.068;13.780;2024-01-07T08:01:14;7.37;;;6.00;;
6017;SDS011;3037;51.068;13.780;2024-01-07T08:03:40;6.13;;;4.97;;
6017;SDS011;3037;51.068;13.780;2024-01-07T08:06:05;5.00;;;4.50;;
6017;SDS011;3037;51.068;13.780;2024-01-07T08:08:31;5.97;;;4.50;;
6017;SDS011;3037;51.068;13.780;2024-01-07T08:10:57;6.40;;;4.03;;
6017;SDS011;3037;51.068;13.780;2024-01-07T08:13:22;4.17;;;3.77;;
6017;SDS011;3037;51.068;13.780;2024-01-07T08:15:48;4.20;;;3.67;;
6017;SDS011;3037;51.068;13.780;2024-01-07T08:18:13;7.97;;;4.07;;
6017;SDS011;3037;51.068;13.780;2024-01-07T08:20:39;4.90;;;4.20;;
6017;SDS011;3037;51.068;13.780;2024-01-07T08:23:05;3.73;;;3.53;;
6017;SDS011;3037;51.068;13.780;2024-01-07T08:25:30;4.60;;;3.47;;
6017;SDS011;3037;51.068;13.780;2024-01-07T08:27:57;6.43;;;4.23;;
6017;SDS011;3037;51.068;13.780;2024-01-07T08:30:22;4.07;;;3.77;;
6017;SDS011;3037;51.068;13.780;2024-01-07T08:32:48;4.50;;;3.47;;
6017;SDS011;3037;51.068;13.780;2024-01-07T08:35:14;6.70;;;3.30;;
6017;SDS011;3037;51.068;13.780;2024-01-07T08:37:39;3.47;;;3.23;;
6017;SDS011;3037;51.068;13.780;2024-01-07T08:40:05;3.57;;;3.37;;
6017;SDS011;3037;51.068;13.780;2024-01-07T08:42:34;5.43;;;3.50;;
6017;SDS011;3037;51.068;13.780;2024-01-07T08:45:00;3.10;;;2.90;;
6017;SDS011;3037;51.068;13.780;2024-01-07T08:47:26;7.33;;;4.60;;
6017;SDS011;3037;51.068;13.780;2024-01-07T08:49:51;4.97;;;3.80;;
6017;SDS011;3037;51.068;13.780;2024-01-07T08:52:18;4.00;;;3.70;;
6017;SDS011;3037;51.068;13.780;2024-01-07T08:54:44;3.30;;;3.10;;
6017;SDS011;3037;51.068;13.780;2024-01-07T08:57:10;3.40;;;3.13;;
6017;SDS011;3037;51.068;13.780;2024-01-07T08:59:35;3.27;;;2.87;;
6017;SDS011;3037;51.068;13.780;2024-01-07T09:02:01;5.00;;;3.73;;
6017;SDS011;3037;51.068;13.780;2024-01-07T09:04:27;3.47;;;3.10;;
6017;SDS011;3037;51.068;13.780;2024-01-07T09:06:53;4.93;;;3.60;;
6017;SDS011;3037;51.068;13.780;2024-01-07T09:09:18;4.33;;;3.47;;
6017;SDS011;3037;51.068;13.780;2024-01-07T09:11:44;4.07;;;3.70;;
6017;SDS011;3037;51.068;13.780;2024-01-07T09:14:10;3.70;;;3.40;;
6017;SDS011;3037;51.068;13.780;2024-01-07T09:16:36;3.37;;;3.07;;
6017;SDS011;3037;51.068;13.780;2024-01-07T09:19:01;3.23;;;3.00;;
6017;SDS011;3037;51.068;13.780;2024-01-07T09:21:27;3.20;;;3.10;;
6017;SDS011;3037;51.068;13.780;2024-01-07T09:23:52;3.40;;;3.20;;
6017;SDS011;3037;51.068;13.780;2024-01-07T09:26:18;3.50;;;3.30;;
6017;SDS011;3037;51.068;13.780;2024-01-07T09:28:43;3.93;;;3.63;;
6017;SDS011;3037;51.068;13.780;2024-01-07T09:31:09;3.37;;;3.13;;
6017;SDS011;3037;51.068;13.780;2024-01-07T09:33:35;3.93;;;3.60;;
6017;SDS011;3037;51.068;13.780;2024-01-07T09:36:00;5.97;;;4.53;;
6017;SDS011;3037;51.068;13.780;2024-01-07T09:38:26;5.30;;;4.03;;
6017;SDS011;3037;51.068;13.780;2024-01-07T09:40:51;4.67;;;3.63;;
6017;SDS011;3037;51.068;13.780;2024-01-07T09:43:18;3.83;;;3.40;;
6017;SDS011;3037;51.068;13.780;2024-01-07T09:45:46;7.00;;;3.77;;
6017;SDS011;3037;51.068;13.780;2024-01-07T09:48:15;6.10;;;4.10;;
6017;SDS011;3037;51.068;13.780;2024-01-07T09:50:41;8.90;;;4.17;;
6017;SDS011;3037;51.068;13.780;2024-01-07T09:53:07;4.20;;;3.30;;
6017;SDS011;3037;51.068;13.780;2024-01-07T09:55:45;3.33;;;3.13;;
6017;SDS011;3037;51.068;13.780;2024-01-07T09:58:17;5.00;;;3.93;;
6017;SDS011;3037;51.068;13.780;2024-01-07T10:00:43;5.80;;;4.00;;
6017;SDS011;3037;51.068;13.780;2024-01-07T10:03:09;4.33;;;3.93;;
6017;SDS011;3037;51.068;13.780;2024-01-07T10:05:35;3.63;;;3.33;;
6017;SDS011;3037;51.068;13.780;2024-01-07T10:08:00;6.17;;;3.23;;
6017;SDS011;3037;51.068;13.780;2024-01-07T10:10:27;3.77;;;2.90;;
6017;SDS011;3037;51.068;13.780;2024-01-07T10:12:54;3.60;;;3.23;;
6017;SDS011;3037;51.068;13.780;2024-01-07T10:15:21;5.70;;;3.60;;
6017;SDS011;3037;51.068;13.780;2024-01-07T10:17:47;3.87;;;3.50;;
6017;SDS011;3037;51.068;13.780;2024-01-07T10:20:13;4.10;;;3.80;;
6017;SDS011;3037;51.068;13.780;2024-01-07T10:22:38;4.17;;;3.77;;
6017;SDS011;3037;51.068;13.780;2024-01-07T10:25:04;4.07;;;3.77;;
6017;SDS011;3037;51.068;13.780;2024-01-07T10:27:33;4.47;;;4.00;;
6017;SDS011;3037;51.068;13.780;2024-01-07T10:30:00;4.40;;;3.90;;
6017;SDS011;3037;51.068;13.780;2024-01-07T10:32:27;3.20;;;3.00;;
6017;SDS011;3037;51.068;13.780;2024-01-07T10:34:54;4.50;;;3.83;;
6017;SDS011;3037;51.068;13.780;2024-01-07T10:37:28;7.93;;;4.00;;
6017;SDS011;3037;51.068;13.780;2024-01-07T10:39:53;4.00;;;3.70;;
6017;SDS011;3037;51.068;13.780;2024-01-07T10:42:22;5.03;;;2.90;;
6017;SDS011;3037;51.068;13.780;2024-01-07T10:44:48;7.20;;;3.60;;
6017;SDS011;3037;51.068;13.780;2024-01-07T10:47:14;3.70;;;3.17;;
6017;SDS011;3037;51.068;13.780;2024-01-07T10:49:44;3.30;;;3.00;;
6017;SDS011;3037;51.068;13.780;2024-01-07T10:52:12;4.07;;;3.47;;
6017;SDS011;3037;51.068;13.780;2024-01-07T10:54:39;4.30;;;3.60;;
6017;SDS011;3037;51.068;13.780;2024-01-07T10:57:21;2.73;;;2.63;;
6017;SDS011;3037;51.068;13.780;2024-01-07T10:59:47;3.37;;;3.07;;
6017;SDS011;3037;51.068;13.780;2024-01-07T11:02:15;3.63;;;3.30;;
6017;SDS011;3037;51.068;13.780;2024-01-07T11:04:58;7.93;;;3.47;;
6017;SDS011;3037;51.068;13.780;2024-01-07T11:07:40;4.87;;;3.77;;
6017;SDS011;3037;51.068;13.780;2024-01-07T11:10:16;3.67;;;3.33;;
6017;SDS011;3037;51.068;13.780;2024-01-07T11:12:52;5.17;;;3.87;;
6017;SDS011;3037;51.068;13.780;2024-01-07T11:18:20;3.70;;;3.40;;
6017;SDS011;3037;51.068;13.780;2024-01-07T11:20:47;3.70;;;3.07;;
6017;SDS011;3037;51.068;13.780;2024-01-07T11:23:27;3.70;;;2.40;;
6017;SDS011;3037;51.068;13.780;2024-01-07T11:25:58;3.50;;;3.07;;
6017;SDS011;3037;51.068;13.780;2024-01-07T11:31:08;6.87;;;2.90;;
6017;SDS011;3037;51.068;13.780;2024-01-07T11:33:36;3.00;;;2.67;;
6017;SDS011;3037;51.068;13.780;2024-01-07T11:36:02;3.70;;;3.00;;
6017;SDS011;3037;51.068;13.780;2024-01-07T11:38:29;2.83;;;2.60;;
6017;SDS011;3037;51.068;13.780;2024-01-07T11:40:54;2.60;;;2.40;;
6017;SDS011;3037;51.068;13.780;2024-01-07T11:43:21;2.70;;;2.50;;
6017;SDS011;3037;51.068;13.780;2024-01-07T11:45:51;3.27;;;3.07;;
6017;SDS011;3037;51.068;13.780;2024-01-07T11:48:17;3.47;;;3.17;;
6017;SDS011;3037;51.068;13.780;2024-01-07T11:50:43;3.87;;;3.57;;
6017;SDS011;3037;51.068;13.780;2024-01-07T11:53:08;3.20;;;3.00;;
6017;SDS011;3037;51.068;13.780;2024-01-07T11:55:36;2.80;;;2.60;;
6017;SDS011;3037;51.068;13.780;2024-01-07T11:58:02;2.67;;;2.47;;
6017;SDS011;3037;51.068;13.780;2024-01-07T12:00:30;2.70;;;2.50;;
6017;SDS011;3037;51.068;13.780;2024-01-07T12:02:57;2.93;;;2.80;;
6017;SDS011;3037;51.068;13.780;2024-01-07T12:05:23;3.03;;;2.87;;
6017;SDS011;3037;51.068;13.780;2024-01-07T12:07:49;3.53;;;2.67;;
6017;SDS011;3037;51.068;13.780;2024-01-07T12:10:15;3.17;;;2.97;;
6017;SDS011;3037;51.068;13.780;2024-01-07T12:12:41;5.33;;;3.50;;
6017;SDS011;3037;51.068;13.780;2024-01-07T12:15:07;3.80;;;3.10;;
6017;SDS011;3037;51.068;13.780;2024-01-07T12:17:33;3.57;;;3.27;;
6017;SDS011;3037;51.068;13.780;2024-01-07T12:20:00;3.60;;;3.30;;
6017;SDS011;3037;51.068;13.780;2024-01-07T12:22:29;2.87;;;2.73;;
6017;SDS011;3037;51.068;13.780;2024-01-07T12:25:07;5.30;;;3.07;;
6017;SDS011;3037;51.068;13.780;2024-01-07T12:27:33;3.70;;;2.53;;
6017;SDS011;3037;51.068;13.780;2024-01-07T12:30:00;3.30;;;3.07;;
6017;SDS011;3037;51.068;13.780;2024-01-07T12:32:32;3.27;;;2.93;;
6017;SDS011;3037;51.068;13.780;2024-01-07T12:34:58;2.83;;;2.73;;
6017;SDS011;3037;51.068;13.780;2024-01-07T12:37:27;3.30;;;3.10;;
6017;SDS011;3037;51.068;13.780;2024-01-07T12:39:53;2.40;;;2.30;;
6017;SDS011;3037;51.068;13.780;2024-01-07T12:42:18;3.47;;;3.00;;
6017;SDS011;3037;51.068;13.780;2024-01-07T12:44:45;2.97;;;2.77;;
6017;SDS011;3037;51.068;13.780;2024-01-07T12:47:10;2.30;;;2.13;;
6017;SDS011;3037;51.068;13.780;2024-01-07T12:49:36;2.57;;;2.37;;
6017;SDS011;3037;51.068;13.780;2024-01-07T12:52:01;2.47;;;2.27;;
6017;SDS011;3037;51.068;13.780;2024-01-07T12:54:27;4.10;;;3.00;;
6017;SDS011;3037;51.068;13.780;2024-01-07T12:56:52;2.77;;;2.57;;
6017;SDS011;3037;51.068;13.780;2024-01-07T12:59:18;2.07;;;1.97;;
6017;SDS011;3037;51.068;13.780;2024-01-07T13:01:43;3.07;;;2.83;;
6017;SDS011;3037;51.068;13.780;2024-01-07T13:04:09;2.60;;;2.43;;
6017;SDS011;3037;51.068;13.780;2024-01-07T13:06:35;3.20;;;2.90;;
6017;SDS011;3037;51.068;13.780;2024-01-07T13:09:00;2.60;;;2.40;;
6017;SDS011;3037;51.068;13.780;2024-01-07T13:11:28;3.00;;;2.80;;
6017;SDS011;3037;51.068;13.780;2024-01-07T13:13:54;3.30;;;3.00;;
6017;SDS011;3037;51.068;13.780;2024-01-07T13:16:23;2.53;;;2.43;;
6017;SDS011;3037;51.068;13.780;2024-01-07T13:18:50;3.23;;;2.47;;
6017;SDS011;3037;51.068;13.780;2024-01-07T13:21:15;2.10;;;2.00;;
6017;SDS011;3037;51.068;13.780;2024-01-07T13:23:42;2.57;;;2.37;;
6017;SDS011;3037;51.068;13.780;2024-01-07T13:26:09;4.20;;;2.90;;
6017;SDS011;3037;51.068;13.780;2024-01-07T13:28:37;2.63;;;2.47;;
6017;SDS011;3037;51.068;13.780;2024-01-07T13:31:02;2.80;;;2.60;;
6017;SDS011;3037;51.068;13.780;2024-01-07T13:33:28;2.77;;;2.63;;
6017;SDS011;3037;51.068;13.780;2024-01-07T13:35:54;2.90;;;2.70;;
6017;SDS011;3037;51.068;13.780;2024-01-07T13:38:20;2.93;;;2.83;;
6017;SDS011;3037;51.068;13.780;2024-01-07T13:40:45;2.43;;;2.23;;
6017;SDS011;3037;51.068;13.780;2024-01-07T13:43:12;4.87;;;2.40;;
6017;SDS011;3037;51.068;13.780;2024-01-07T13:45:37;2.70;;;2.50;;
6017;SDS011;3037;51.068;13.780;2024-01-07T13:48:03;3.30;;;3.00;;
6017;SDS011;3037;51.068;13.780;2024-01-07T13:50:28;3.10;;;2.90;;
6017;SDS011;3037;51.068;13.780;2024-01-07T13:52:54;2.70;;;2.60;;
6017;SDS011;3037;51.068;13.780;2024-01-07T13:55:19;3.63;;;2.77;;
6017;SDS011;3037;51.068;13.780;2024-01-07T13:57:45;2.20;;;2.10;;
6017;SDS011;3037;51.068;13.780;2024-01-07T14:00:10;2.70;;;2.50;;
6017;SDS011;3037;51.068;13.780;2024-01-07T14:02:43;1.97;;;1.87;;
6017;SDS011;3037;51.068;13.780;2024-01-07T14:05:10;2.43;;;2.30;;
6017;SDS011;3037;51.068;13.780;2024-01-07T14:07:36;2.70;;;2.50;;
6017;SDS011;3037;51.068;13.780;2024-01-07T14:10:02;2.83;;;2.47;;
6017;SDS011;3037;51.068;13.780;2024-01-07T14:12:29;5.60;;;2.17;;
6017;SDS011;3037;51.068;13.780;2024-01-07T14:14:55;3.37;;;3.13;;
6017;SDS011;3037;51.068;13.780;2024-01-07T14:17:21;2.43;;;2.33;;
6017;SDS011;3037;51.068;13.780;2024-01-07T14:19:47;2.50;;;2.40;;
6017;SDS011;3037;51.068;13.780;2024-01-07T14:22:13;2.37;;;2.27;;
6017;SDS011;3037;51.068;13.780;2024-01-07T14:24:38;1.97;;;1.87;;
6017;SDS011;3037;51.068;13.780;2024-01-07T14:27:04;3.00;;;2.80;;
6017;SDS011;3037;51.068;13.780;2024-01-07T14:29:29;3.17;;;2.47;;
6017;SDS011;3037;51.068;13.780;2024-01-07T14:31:55;2.43;;;2.30;;
6017;SDS011;3037;51.068;13.780;2024-01-07T14:34:20;2.40;;;2.30;;
6017;SDS011;3037;51.068;13.780;2024-01-07T14:36:46;3.00;;;2.80;;
6017;SDS011;3037;51.068;13.780;2024-01-07T14:39:11;2.70;;;2.50;;
6017;SDS011;3037;51.068;13.780;2024-01-07T14:41:39;6.40;;;3.10;;
6017;SDS011;3037;51.068;13.780;2024-01-07T14:44:04;7.27;;;3.70;;
6017;SDS011;3037;51.068;13.780;2024-01-07T14:46:30;2.80;;;2.70;;
6017;SDS011;3037;51.068;13.780;2024-01-07T14:48:55;2.60;;;2.40;;
6017;SDS011;3037;51.068;13.780;2024-01-07T14:51:21;2.40;;;2.20;;